ADDS METAR Data INFO
IDs: Format: Raw Decoded Include TAF

Data at: 0930 UTC 11 Dec 2017

KBVO 110853Z AUTO 06003KT 10SM CLR 01/M06 A3017 RMK AO2 SLP215 T00061061 56015
KBVO 110753Z AUTO 09003KT 10SM CLR 04/M06 A3018 RMK AO2 SLP217 T00391061
KBVO 110653Z AUTO 26007KT 10SM CLR 07/M06 A3021 RMK AO2 SLP224 T00671061
KBVO 110553Z AUTO 00000KT 10SM CLR 02/M06 A3022 RMK AO2 SLP231 T00171061 10111 20011 401891061 53001
KBVO 110453Z AUTO 00000KT 10SM CLR 04/M06 A3021 RMK AO2 SLP228 T00441061
KBVO 110353Z AUTO 00000KT 10SM CLR 08/M07 A3022 RMK AO2 SLP230 T00781067
KBVO 110253Z AUTO 26007KT 10SM CLR 11/M07 A3022 RMK AO2 SLP230 T01111067 53001
KBVO 110153Z AUTO 26006KT 10SM CLR 09/M06 A3021 RMK AO2 SLP229 T00941061
KBVO 110053Z AUTO 00000KT 10SM CLR 04/M06 A3021 RMK AO2 SLP232 T00441061
KBVO 102353Z AUTO 26005KT 10SM CLR 07/M06 A3021 RMK AO2 SLP230 T00721061 10189 20072 53004
KBVO 102253Z AUTO 27005KT 10SM CLR 16/M07 A3020 RMK AO2 SLP226 T01561072
KBVO 102153Z AUTO 29008KT 10SM CLR 18/M08 A3020 RMK AO2 SLP225 T01781078
KBVO 102053Z VRB04KT 10SM CLR 18/M08 A3020 RMK AO2 SLP225 T01831083 56012
KBVO 101953Z VRB04KT 10SM CLR 18/M08 A3021 RMK AO2 SLP230 T01781078
KBVO 101853Z VRB06KT 10SM CLR 17/M09 A3022 RMK AO2 SLP230 T01721089
KBVO 101753Z VRB04KT 10SM CLR 16/M07 A3024 RMK AO2 SLP238 T01611072 10161 20011 58005
KBVO 101653Z 30005KT 10SM CLR 14/M07 A3025 RMK AO2 SLP244 T01391072
KBVO 101553Z VRB03KT 10SM CLR 10/M06 A3026 RMK AO2 SLP246 T01001056
KBVO 101453Z 24004KT 10SM CLR 04/M06 A3025 RMK AO2 SLP245 T00441056 53013
KBVO 101353Z AUTO VRB06KT 10SM CLR 02/M06 A3024 RMK AO2 SLP241 T00171056
KBVO 101253Z AUTO 27008KT 10SM CLR 02/M06 A3022 RMK AO2 SLP236 T00221056
KBVO 101153Z AUTO 25010KT 10SM CLR 01/M05 A3021 RMK AO2 SLP231 T00111050 10017 21061 56017
KBVO 101053Z AUTO 23007KT 10SM CLR 01/M05 A3023 RMK AO2 SLP235 T00111050
KBVO 100953Z AUTO 00000KT 10SM CLR M04/M07 A3024 RMK AO2 SLP242 T10391072
KBVO 100853Z AUTO 12003KT 10SM CLR M05/M08 A3026 RMK AO2 SLP248 T10501083 56007
KBVO 100753Z AUTO 12003KT 10SM CLR M04/M08 A3027 RMK AO2 SLP248 T10391083
KBVO 100653Z AUTO 00000KT 10SM CLR M06/M08 A3028 RMK AO2 SLP253 T10561083
KBVO 100553Z AUTO 00000KT 10SM CLR M05/M08 A3028 RMK AO2 SLP255 T10501083 10033 21056 401221067 58004
KBVO 100453Z AUTO 00000KT 10SM CLR M04/M08 A3030 RMK AO2 SLP260 T10441078
KBVO 100353Z AUTO 00000KT 10SM CLR M05/M08 A3030 RMK AO2 SLP262 T10501083
KBVO 100253Z AUTO 00000KT 10SM CLR M03/M08 A3030 RMK AO2 SLP262 T10331078 51012
KBVO 100153Z AUTO 00000KT 10SM CLR M03/M08 A3029 RMK AO2 SLP260 T10281083
KBVO 100053Z AUTO 00000KT 10SM CLR M01/M07 A3028 RMK AO2 SLP256 T10061072
KBVO 092353Z AUTO 00000KT 10SM CLR 03/M08 A3026 RMK AO2 SLP249 T00281078 10122 20028 51013
KBVO 092253Z AUTO VRB03KT 10SM CLR 08/M08 A3025 RMK AO2 SLP245 T00781078
KBVO 092153Z AUTO 10SM CLR 11/M08 A3024 RMK AO2 SLP240 T01061078